sensor_id;sensor_type;location;lat;lon;timestamp;P1;durP1;ratioP1;P2;durP2;ratioP2
64597;SDS011;51004;54.692;9.332;2023-03-31T00:01:38;73.53;;;14.63;;
64597;SDS011;51004;54.692;9.332;2023-03-31T00:04:08;68.10;;;11.98;;
64597;SDS011;51004;54.692;9.332;2023-03-31T00:06:37;71.43;;;12.18;;
64597;SDS011;51004;54.692;9.332;2023-03-31T00:09:06;72.03;;;11.82;;
64597;SDS011;51004;54.692;9.332;2023-03-31T00:11:33;69.65;;;12.18;;
64597;SDS011;51004;54.692;9.332;2023-03-31T00:14:00;69.22;;;11.43;;
64597;SDS011;51004;54.692;9.332;2023-03-31T00:16:26;69.43;;;10.95;;
64597;SDS011;51004;54.692;9.332;2023-03-31T00:18:52;82.28;;;11.57;;
64597;SDS011;51004;54.692;9.332;2023-03-31T00:21:20;63.17;;;11.27;;
64597;SDS011;51004;54.692;9.332;2023-03-31T00:23:53;92.10;;;11.95;;
64597;SDS011;51004;54.692;9.332;2023-03-31T00:26:19;74.43;;;12.77;;
64597;SDS011;51004;54.692;9.332;2023-03-31T00:28:47;72.97;;;12.90;;
64597;SDS011;51004;54.692;9.332;2023-03-31T00:31:13;75.75;;;11.75;;
64597;SDS011;51004;54.692;9.332;2023-03-31T00:33:39;72.55;;;13.35;;
64597;SDS011;51004;54.692;9.332;2023-03-31T00:36:06;57.03;;;10.18;;
64597;SDS011;51004;54.692;9.332;2023-03-31T00:38:33;71.80;;;12.73;;
64597;SDS011;51004;54.692;9.332;2023-03-31T00:40:59;68.70;;;11.55;;
64597;SDS011;51004;54.692;9.332;2023-03-31T00:45:52;83.88;;;12.70;;
64597;SDS011;51004;54.692;9.332;2023-03-31T00:48:19;87.30;;;12.77;;
64597;SDS011;51004;54.692;9.332;2023-03-31T00:50:50;88.03;;;12.88;;
64597;SDS011;51004;54.692;9.332;2023-03-31T00:53:18;74.63;;;11.60;;
64597;SDS011;51004;54.692;9.332;2023-03-31T00:55:50;71.93;;;11.40;;
64597;SDS011;51004;54.692;9.332;2023-03-31T00:58:19;94.63;;;15.25;;
64597;SDS011;51004;54.692;9.332;2023-03-31T01:00:47;76.97;;;12.38;;
64597;SDS011;51004;54.692;9.332;2023-03-31T01:03:18;68.95;;;11.30;;
64597;SDS011;51004;54.692;9.332;2023-03-31T01:05:47;69.95;;;11.15;;
64597;SDS011;51004;54.692;9.332;2023-03-31T01:08:15;67.38;;;11.35;;
64597;SDS011;51004;54.692;9.332;2023-03-31T01:10:44;71.68;;;10.98;;
64597;SDS011;51004;54.692;9.332;2023-03-31T01:13:12;64.45;;;11.10;;
64597;SDS011;51004;54.692;9.332;2023-03-31T01:15:39;65.53;;;10.07;;
64597;SDS011;51004;54.692;9.332;2023-03-31T01:18:06;66.70;;;9.93;;
64597;SDS011;51004;54.692;9.332;2023-03-31T01:23:22;60.72;;;9.43;;
64597;SDS011;51004;54.692;9.332;2023-03-31T01:26:31;48.42;;;8.55;;
64597;SDS011;51004;54.692;9.332;2023-03-31T01:28:48;54.67;;;9.98;;
64597;SDS011;51004;54.692;9.332;2023-03-31T01:41:28;71.38;;;11.18;;
64597;SDS011;51004;54.692;9.332;2023-03-31T01:46:52;81.15;;;13.40;;
64597;SDS011;51004;54.692;9.332;2023-03-31T01:51:59;72.95;;;11.85;;
64597;SDS011;51004;54.692;9.332;2023-03-31T01:54:32;57.05;;;11.57;;
64597;SDS011;51004;54.692;9.332;2023-03-31T01:57:13;64.97;;;11.65;;
64597;SDS011;51004;54.692;9.332;2023-03-31T02:02:12;92.25;;;13.52;;
64597;SDS011;51004;54.692;9.332;2023-03-31T02:04:42;74.03;;;13.32;;
64597;SDS011;51004;54.692;9.332;2023-03-31T02:07:12;68.20;;;11.20;;
64597;SDS011;51004;54.692;9.332;2023-03-31T02:09:41;67.63;;;12.30;;
64597;SDS011;51004;54.692;9.332;2023-03-31T02:12:09;74.80;;;11.02;;
64597;SDS011;51004;54.692;9.332;2023-03-31T02:14:37;68.68;;;10.00;;
64597;SDS011;51004;54.692;9.332;2023-03-31T02:17:05;64.90;;;11.80;;
64597;SDS011;51004;54.692;9.332;2023-03-31T02:19:33;64.80;;;12.65;;
64597;SDS011;51004;54.692;9.332;2023-03-31T02:22:00;72.78;;;12.82;;
64597;SDS011;51004;54.692;9.332;2023-03-31T02:24:28;63.63;;;11.20;;
64597;SDS011;51004;54.692;9.332;2023-03-31T02:26:59;71.50;;;13.88;;
64597;SDS011;51004;54.692;9.332;2023-03-31T02:29:28;69.32;;;11.32;;
64597;SDS011;51004;54.692;9.332;2023-03-31T02:32:00;85.55;;;12.43;;
64597;SDS011;51004;54.692;9.332;2023-03-31T02:34:27;81.45;;;13.63;;
64597;SDS011;51004;54.692;9.332;2023-03-31T02:36:53;75.50;;;13.23;;
64597;SDS011;51004;54.692;9.332;2023-03-31T02:39:23;53.28;;;11.27;;
64597;SDS011;51004;54.692;9.332;2023-03-31T02:41:50;61.90;;;12.20;;
64597;SDS011;51004;54.692;9.332;2023-03-31T02:44:17;49.30;;;9.80;;
64597;SDS011;51004;54.692;9.332;2023-03-31T02:46:43;46.33;;;8.52;;
64597;SDS011;51004;54.692;9.332;2023-03-31T02:49:09;46.00;;;9.23;;
64597;SDS011;51004;54.692;9.332;2023-03-31T03:17:00;80.25;;;12.38;;
64597;SDS011;51004;54.692;9.332;2023-03-31T03:19:27;62.00;;;11.30;;
64597;SDS011;51004;54.692;9.332;2023-03-31T03:21:53;92.28;;;12.02;;
64597;SDS011;51004;54.692;9.332;2023-03-31T03:24:19;69.45;;;12.52;;
64597;SDS011;51004;54.692;9.332;2023-03-31T03:26:46;81.40;;;12.15;;
64597;SDS011;51004;54.692;9.332;2023-03-31T03:29:12;81.60;;;12.95;;
64597;SDS011;51004;54.692;9.332;2023-03-31T03:31:39;100.60;;;12.65;;
64597;SDS011;51004;54.692;9.332;2023-03-31T03:34:05;74.65;;;12.43;;
64597;SDS011;51004;54.692;9.332;2023-03-31T03:36:31;88.30;;;13.40;;
64597;SDS011;51004;54.692;9.332;2023-03-31T03:38:57;85.45;;;11.75;;
64597;SDS011;51004;54.692;9.332;2023-03-31T03:41:23;75.22;;;11.80;;
64597;SDS011;51004;54.692;9.332;2023-03-31T03:43:49;86.53;;;13.40;;
64597;SDS011;51004;54.692;9.332;2023-03-31T03:46:15;81.20;;;14.77;;
64597;SDS011;51004;54.692;9.332;2023-03-31T03:48:41;81.68;;;13.45;;
64597;SDS011;51004;54.692;9.332;2023-03-31T03:51:07;81.63;;;14.18;;
64597;SDS011;51004;54.692;9.332;2023-03-31T03:53:33;76.18;;;12.48;;
64597;SDS011;51004;54.692;9.332;2023-03-31T03:55:59;80.32;;;13.30;;
64597;SDS011;51004;54.692;9.332;2023-03-31T03:58:26;89.95;;;13.10;;
64597;SDS011;51004;54.692;9.332;2023-03-31T04:00:52;81.32;;;12.68;;
64597;SDS011;51004;54.692;9.332;2023-03-31T04:03:18;76.70;;;12.25;;
64597;SDS011;51004;54.692;9.332;2023-03-31T04:05:45;77.28;;;12.27;;
64597;SDS011;51004;54.692;9.332;2023-03-31T04:08:13;82.90;;;13.27;;
64597;SDS011;51004;54.692;9.332;2023-03-31T04:10:46;77.78;;;14.70;;
64597;SDS011;51004;54.692;9.332;2023-03-31T04:13:13;81.22;;;13.48;;
64597;SDS011;51004;54.692;9.332;2023-03-31T04:15:40;72.18;;;12.70;;
64597;SDS011;51004;54.692;9.332;2023-03-31T04:18:06;64.60;;;12.90;;
64597;SDS011;51004;54.692;9.332;2023-03-31T04:20:38;81.57;;;13.35;;
64597;SDS011;51004;54.692;9.332;2023-03-31T04:23:04;83.82;;;13.93;;
64597;SDS011;51004;54.692;9.332;2023-03-31T04:25:33;93.50;;;14.52;;
64597;SDS011;51004;54.692;9.332;2023-03-31T04:28:02;92.45;;;14.48;;
64597;SDS011;51004;54.692;9.332;2023-03-31T04:30:31;83.85;;;14.07;;
64597;SDS011;51004;54.692;9.332;2023-03-31T04:32:58;79.70;;;15.32;;
64597;SDS011;51004;54.692;9.332;2023-03-31T04:35:25;82.75;;;13.82;;
64597;SDS011;51004;54.692;9.332;2023-03-31T04:37:52;78.18;;;13.07;;
64597;SDS011;51004;54.692;9.332;2023-03-31T04:40:23;93.57;;;13.93;;
64597;SDS011;51004;54.692;9.332;2023-03-31T04:42:49;71.03;;;12.75;;
64597;SDS011;51004;54.692;9.332;2023-03-31T04:45:18;97.72;;;15.10;;
64597;SDS011;51004;54.692;9.332;2023-03-31T04:47:44;99.97;;;14.75;;
64597;SDS011;51004;54.692;9.332;2023-03-31T04:50:17;80.80;;;13.80;;
64597;SDS011;51004;54.692;9.332;2023-03-31T04:52:43;84.03;;;13.55;;
64597;SDS011;51004;54.692;9.332;2023-03-31T04:55:09;95.75;;;15.45;;
64597;SDS011;51004;54.692;9.332;2023-03-31T04:57:36;89.00;;;14.13;;
64597;SDS011;51004;54.692;9.332;2023-03-31T05:00:03;73.93;;;14.15;;
64597;SDS011;51004;54.692;9.332;2023-03-31T05:02:32;99.18;;;13.60;;
64597;SDS011;51004;54.692;9.332;2023-03-31T05:04:58;85.47;;;13.55;;
64597;SDS011;51004;54.692;9.332;2023-03-31T05:07:24;91.40;;;13.40;;
64597;SDS011;51004;54.692;9.332;2023-03-31T05:09:51;108.45;;;14.20;;
64597;SDS011;51004;54.692;9.332;2023-03-31T05:12:17;111.07;;;14.57;;
64597;SDS011;51004;54.692;9.332;2023-03-31T05:14:43;94.28;;;13.60;;
64597;SDS011;51004;54.692;9.332;2023-03-31T05:17:09;89.28;;;13.23;;
64597;SDS011;51004;54.692;9.332;2023-03-31T05:19:35;114.75;;;15.88;;
64597;SDS011;51004;54.692;9.332;2023-03-31T05:22:01;115.18;;;15.20;;
64597;SDS011;51004;54.692;9.332;2023-03-31T05:24:27;106.15;;;15.00;;
64597;SDS011;51004;54.692;9.332;2023-03-31T05:26:54;108.63;;;14.55;;
64597;SDS011;51004;54.692;9.332;2023-03-31T05:29:21;114.57;;;15.38;;
64597;SDS011;51004;54.692;9.332;2023-03-31T05:31:47;94.03;;;13.35;;
64597;SDS011;51004;54.692;9.332;2023-03-31T05:34:13;93.10;;;12.95;;
64597;SDS011;51004;54.692;9.332;2023-03-31T05:36:39;98.90;;;13.85;;
64597;SDS011;51004;54.692;9.332;2023-03-31T05:39:07;96.10;;;12.98;;
64597;SDS011;51004;54.692;9.332;2023-03-31T05:41:33;91.80;;;14.05;;
64597;SDS011;51004;54.692;9.332;2023-03-31T05:43:59;67.25;;;12.52;;
64597;SDS011;51004;54.692;9.332;2023-03-31T05:46:29;79.65;;;13.38;;
64597;SDS011;51004;54.692;9.332;2023-03-31T05:48:55;88.10;;;13.02;;
64597;SDS011;51004;54.692;9.332;2023-03-31T05:51:21;70.30;;;11.20;;
64597;SDS011;51004;54.692;9.332;2023-03-31T05:53:47;83.93;;;12.88;;
64597;SDS011;51004;54.692;9.332;2023-03-31T05:56:16;75.43;;;12.43;;
64597;SDS011;51004;54.692;9.332;2023-03-31T05:58:42;66.63;;;11.20;;
64597;SDS011;51004;54.692;9.332;2023-03-31T06:01:10;60.15;;;10.63;;
64597;SDS011;51004;54.692;9.332;2023-03-31T06:03:37;72.82;;;13.18;;
64597;SDS011;51004;54.692;9.332;2023-03-31T06:06:05;66.47;;;11.30;;
64597;SDS011;51004;54.692;9.332;2023-03-31T06:08:32;65.10;;;11.63;;
64597;SDS011;51004;54.692;9.332;2023-03-31T06:10:58;67.50;;;11.13;;
64597;SDS011;51004;54.692;9.332;2023-03-31T06:13:24;62.10;;;10.30;;
64597;SDS011;51004;54.692;9.332;2023-03-31T06:15:57;56.25;;;10.43;;
64597;SDS011;51004;54.692;9.332;2023-03-31T06:18:23;60.63;;;10.10;;
64597;SDS011;51004;54.692;9.332;2023-03-31T06:20:50;54.75;;;10.15;;
64597;SDS011;51004;54.692;9.332;2023-03-31T06:23:16;53.75;;;9.38;;
64597;SDS011;51004;54.692;9.332;2023-03-31T06:25:42;73.45;;;11.23;;
64597;SDS011;51004;54.692;9.332;2023-03-31T06:28:08;53.28;;;9.90;;
64597;SDS011;51004;54.692;9.332;2023-03-31T06:30:34;68.20;;;10.90;;
64597;SDS011;51004;54.692;9.332;2023-03-31T06:33:00;70.47;;;10.10;;
64597;SDS011;51004;54.692;9.332;2023-03-31T06:35:26;67.65;;;11.63;;
64597;SDS011;51004;54.692;9.332;2023-03-31T06:37:52;58.30;;;9.40;;
64597;SDS011;51004;54.692;9.332;2023-03-31T06:40:18;57.03;;;9.50;;
64597;SDS011;51004;54.692;9.332;2023-03-31T06:42:44;68.53;;;9.45;;
64597;SDS011;51004;54.692;9.332;2023-03-31T06:45:10;66.45;;;11.40;;
64597;SDS011;51004;54.692;9.332;2023-03-31T06:47:36;57.17;;;8.75;;
64597;SDS011;51004;54.692;9.332;2023-03-31T06:50:03;63.58;;;10.55;;
64597;SDS011;51004;54.692;9.332;2023-03-31T06:52:30;60.13;;;8.90;;
64597;SDS011;51004;54.692;9.332;2023-03-31T06:54:56;59.38;;;11.73;;
64597;SDS011;51004;54.692;9.332;2023-03-31T06:57:22;55.40;;;8.75;;
64597;SDS011;51004;54.692;9.332;2023-03-31T06:59:48;58.47;;;11.55;;
64597;SDS011;51004;54.692;9.332;2023-03-31T07:02:14;54.67;;;9.07;;
64597;SDS011;51004;54.692;9.332;2023-03-31T07:04:40;52.42;;;9.02;;
64597;SDS011;51004;54.692;9.332;2023-03-31T07:07:06;53.33;;;9.20;;
64597;SDS011;51004;54.692;9.332;2023-03-31T07:09:32;48.88;;;10.02;;
64597;SDS011;51004;54.692;9.332;2023-03-31T07:11:58;57.83;;;8.80;;
64597;SDS011;51004;54.692;9.332;2023-03-31T07:14:24;45.38;;;8.23;;
64597;SDS011;51004;54.692;9.332;2023-03-31T07:16:51;52.33;;;7.40;;
64597;SDS011;51004;54.692;9.332;2023-03-31T07:19:17;41.67;;;7.35;;
64597;SDS011;51004;54.692;9.332;2023-03-31T07:21:43;38.80;;;7.00;;
64597;SDS011;51004;54.692;9.332;2023-03-31T07:24:09;39.25;;;6.63;;
64597;SDS011;51004;54.692;9.332;2023-03-31T07:26:35;37.90;;;6.53;;
64597;SDS011;51004;54.692;9.332;2023-03-31T07:29:01;38.40;;;6.75;;
64597;SDS011;51004;54.692;9.332;2023-03-31T07:31:27;35.10;;;6.45;;
64597;SDS011;51004;54.692;9.332;2023-03-31T07:33:53;37.72;;;6.72;;
64597;SDS011;51004;54.692;9.332;2023-03-31T07:36:20;31.95;;;6.63;;
64597;SDS011;51004;54.692;9.332;2023-03-31T07:38:46;41.63;;;7.28;;
64597;SDS011;51004;54.692;9.332;2023-03-31T07:41:14;31.40;;;6.07;;
64597;SDS011;51004;54.692;9.332;2023-03-31T07:43:40;38.40;;;7.28;;
64597;SDS011;51004;54.692;9.332;2023-03-31T07:46:06;40.45;;;7.25;;
64597;SDS011;51004;54.692;9.332;2023-03-31T07:48:38;34.53;;;6.90;;
64597;SDS011;51004;54.692;9.332;2023-03-31T07:51:04;38.25;;;6.82;;
64597;SDS011;51004;54.692;9.332;2023-03-31T07:53:30;35.10;;;7.30;;
64597;SDS011;51004;54.692;9.332;2023-03-31T07:55:56;35.92;;;5.75;;
64597;SDS011;51004;54.692;9.332;2023-03-31T07:58:22;27.13;;;5.20;;
64597;SDS011;51004;54.692;9.332;2023-03-31T08:00:48;34.72;;;6.07;;
64597;SDS011;51004;54.692;9.332;2023-03-31T08:03:14;37.95;;;7.65;;
64597;SDS011;51004;54.692;9.332;2023-03-31T08:05:40;32.70;;;5.85;;
64597;SDS011;51004;54.692;9.332;2023-03-31T08:08:06;36.13;;;5.53;;
64597;SDS011;51004;54.692;9.332;2023-03-31T08:10:33;41.33;;;7.82;;
64597;SDS011;51004;54.692;9.332;2023-03-31T08:12:59;33.08;;;6.28;;
64597;SDS011;51004;54.692;9.332;2023-03-31T08:15:25;28.30;;;5.70;;
64597;SDS011;51004;54.692;9.332;2023-03-31T08:17:51;30.00;;;5.88;;
64597;SDS011;51004;54.692;9.332;2023-03-31T08:20:17;49.13;;;6.88;;
64597;SDS011;51004;54.692;9.332;2023-03-31T08:22:43;36.65;;;7.03;;
64597;SDS011;51004;54.692;9.332;2023-03-31T08:25:09;36.45;;;5.82;;
64597;SDS011;51004;54.692;9.332;2023-03-31T08:27:36;45.65;;;7.30;;
64597;SDS011;51004;54.692;9.332;2023-03-31T08:30:03;39.08;;;6.22;;
64597;SDS011;51004;54.692;9.332;2023-03-31T08:32:33;34.90;;;7.25;;
64597;SDS011;51004;54.692;9.332;2023-03-31T08:35:00;34.35;;;7.28;;
64597;SDS011;51004;54.692;9.332;2023-03-31T08:37:26;36.30;;;6.53;;
64597;SDS011;51004;54.692;9.332;2023-03-31T08:39:53;36.17;;;6.32;;
64597;SDS011;51004;54.692;9.332;2023-03-31T08:44:51;31.25;;;6.70;;
64597;SDS011;51004;54.692;9.332;2023-03-31T08:47:20;39.97;;;6.70;;
64597;SDS011;51004;54.692;9.332;2023-03-31T08:49:49;35.85;;;6.40;;
64597;SDS011;51004;54.692;9.332;2023-03-31T08:55:26;49.08;;;7.70;;
64597;SDS011;51004;54.692;9.332;2023-03-31T09:00:30;43.83;;;7.28;;
64597;SDS011;51004;54.692;9.332;2023-03-31T09:03:04;32.05;;;7.50;;
64597;SDS011;51004;54.692;9.332;2023-03-31T09:05:45;38.97;;;8.52;;
64597;SDS011;51004;54.692;9.332;2023-03-31T09:16:13;43.78;;;10.35;;
64597;SDS011;51004;54.692;9.332;2023-03-31T09:18:39;40.08;;;8.88;;
64597;SDS011;51004;54.692;9.332;2023-03-31T09:26:41;41.53;;;7.45;;
64597;SDS011;51004;54.692;9.332;2023-03-31T09:29:16;35.95;;;7.38;;
64597;SDS011;51004;54.692;9.332;2023-03-31T09:31:44;53.03;;;7.70;;
64597;SDS011;51004;54.692;9.332;2023-03-31T09:34:14;35.42;;;7.05;;
64597;SDS011;51004;54.692;9.332;2023-03-31T09:36:41;48.28;;;9.68;;
64597;SDS011;51004;54.692;9.332;2023-03-31T09:39:10;35.67;;;7.32;;
64597;SDS011;51004;54.692;9.332;2023-03-31T09:41:37;41.25;;;9.68;;
64597;SDS011;51004;54.692;9.332;2023-03-31T09:44:20;36.80;;;8.85;;
64597;SDS011;51004;54.692;9.332;2023-03-31T09:46:47;46.70;;;8.13;;
64597;SDS011;51004;54.692;9.332;2023-03-31T09:49:15;38.38;;;8.43;;
64597;SDS011;51004;54.692;9.332;2023-03-31T09:51:46;45.45;;;9.10;;
64597;SDS011;51004;54.692;9.332;2023-03-31T09:56:47;48.85;;;9.65;;
64597;SDS011;51004;54.692;9.332;2023-03-31T09:59:22;45.42;;;10.35;;
64597;SDS011;51004;54.692;9.332;2023-03-31T10:01:48;36.58;;;9.25;;
64597;SDS011;51004;54.692;9.332;2023-03-31T10:04:22;39.72;;;10.48;;
64597;SDS011;51004;54.692;9.332;2023-03-31T10:09:16;37.03;;;11.20;;
64597;SDS011;51004;54.692;9.332;2023-03-31T10:14:26;38.30;;;11.95;;
64597;SDS011;51004;54.692;9.332;2023-03-31T10:16:57;37.22;;;12.65;;
64597;SDS011;51004;54.692;9.332;2023-03-31T10:19:27;49.45;;;13.35;;
64597;SDS011;51004;54.692;9.332;2023-03-31T10:21:57;40.25;;;12.10;;
64597;SDS011;51004;54.692;9.332;2023-03-31T10:24:23;46.05;;;13.63;;
64597;SDS011;51004;54.692;9.332;2023-03-31T10:26:52;38.83;;;14.43;;
64597;SDS011;51004;54.692;9.332;2023-03-31T10:29:21;40.78;;;14.25;;
64597;SDS011;51004;54.692;9.332;2023-03-31T10:31:49;48.30;;;14.57;;
64597;SDS011;51004;54.692;9.332;2023-03-31T10:34:16;40.85;;;15.20;;
64597;SDS011;51004;54.692;9.332;2023-03-31T10:36:46;38.63;;;15.75;;
64597;SDS011;51004;54.692;9.332;2023-03-31T10:39:14;51.13;;;18.15;;
64597;SDS011;51004;54.692;9.332;2023-03-31T10:41:40;45.75;;;18.60;;
64597;SDS011;51004;54.692;9.332;2023-03-31T10:44:10;42.72;;;18.20;;
64597;SDS011;51004;54.692;9.332;2023-03-31T10:46:53;38.92;;;17.17;;
64597;SDS011;51004;54.692;9.332;2023-03-31T10:51:48;41.83;;;19.08;;
64597;SDS011;51004;54.692;9.332;2023-03-31T10:54:14;44.25;;;19.42;;
64597;SDS011;51004;54.692;9.332;2023-03-31T10:56:42;49.17;;;20.40;;
64597;SDS011;51004;54.692;9.332;2023-03-31T11:02:02;47.00;;;20.83;;
64597;SDS011;51004;54.692;9.332;2023-03-31T11:07:19;44.85;;;21.15;;
64597;SDS011;51004;54.692;9.332;2023-03-31T11:10:10;40.50;;;20.83;;
64597;SDS011;51004;54.692;9.332;2023-03-31T11:15:31;42.25;;;21.35;;
64597;SDS011;51004;54.692;9.332;2023-03-31T11:18:03;37.75;;;22.25;;
64597;SDS011;51004;54.692;9.332;2023-03-31T11:23:21;48.33;;;23.42;;
64597;SDS011;51004;54.692;9.332;2023-03-31T11:28:21;42.15;;;22.42;;
64597;SDS011;51004;54.692;9.332;2023-03-31T11:33:37;35.17;;;20.98;;
64597;SDS011;51004;54.692;9.332;2023-03-31T11:43:46;33.17;;;15.93;;
64597;SDS011;51004;54.692;9.332;2023-03-31T11:46:16;27.38;;;15.25;;
64597;SDS011;51004;54.692;9.332;2023-03-31T11:48:50;28.38;;;15.82;;
64597;SDS011;51004;54.692;9.332;2023-03-31T11:53:50;22.67;;;14.20;;
64597;SDS011;51004;54.692;9.332;2023-03-31T11:56:18;23.30;;;12.63;;
64597;SDS011;51004;54.692;9.332;2023-03-31T11:58:46;22.13;;;13.00;;
64597;SDS011;51004;54.692;9.332;2023-03-31T12:01:39;20.42;;;12.23;;
64597;SDS011;51004;54.692;9.332;2023-03-31T12:04:14;20.95;;;12.07;;
64597;SDS011;51004;54.692;9.332;2023-03-31T12:06:47;21.00;;;13.73;;
64597;SDS011;51004;54.692;9.332;2023-03-31T12:11:52;18.15;;;12.32;;
64597;SDS011;51004;54.692;9.332;2023-03-31T12:14:28;13.85;;;11.35;;
64597;SDS011;51004;54.692;9.332;2023-03-31T12:17:01;14.07;;;10.40;;
64597;SDS011;51004;54.692;9.332;2023-03-31T12:19:34;15.93;;;10.10;;
64597;SDS011;51004;54.692;9.332;2023-03-31T12:24:36;8.43;;;5.83;;
64597;SDS011;51004;54.692;9.332;2023-03-31T12:27:13;9.85;;;6.32;;
64597;SDS011;51004;54.692;9.332;2023-03-31T12:32:14;11.82;;;8.02;;
64597;SDS011;51004;54.692;9.332;2023-03-31T12:34:43;12.00;;;8.55;;
64597;SDS011;51004;54.692;9.332;2023-03-31T12:58:07;12.32;;;6.90;;
64597;SDS011;51004;54.692;9.332;2023-03-31T13:00:48;9.40;;;6.45;;
64597;SDS011;51004;54.692;9.332;2023-03-31T13:06:01;11.38;;;5.38;;
64597;SDS011;51004;54.692;9.332;2023-03-31T13:11:12;14.65;;;4.72;;
64597;SDS011;51004;54.692;9.332;2023-03-31T13:16:23;7.68;;;4.88;;
64597;SDS011;51004;54.692;9.332;2023-03-31T13:18:50;7.35;;;2.95;;
64597;SDS011;51004;54.692;9.332;2023-03-31T13:21:17;8.13;;;3.28;;
64597;SDS011;51004;54.692;9.332;2023-03-31T13:23:43;3.95;;;2.85;;
64597;SDS011;51004;54.692;9.332;2023-03-31T13:36:57;6.15;;;3.60;;
64597;SDS011;51004;54.692;9.332;2023-03-31T13:39:29;7.45;;;4.13;;
64597;SDS011;51004;54.692;9.332;2023-03-31T13:44:47;7.43;;;4.03;;
64597;SDS011;51004;54.692;9.332;2023-03-31T13:52:34;5.05;;;3.60;;
64597;SDS011;51004;54.692;9.332;2023-03-31T14:00:20;9.05;;;3.95;;
64597;SDS011;51004;54.692;9.332;2023-03-31T14:07:58;5.22;;;2.95;;
64597;SDS011;51004;54.692;9.332;2023-03-31T14:10:32;5.68;;;3.28;;
64597;SDS011;51004;54.692;9.332;2023-03-31T14:13:06;6.78;;;3.67;;
64597;SDS011;51004;54.692;9.332;2023-03-31T14:17:58;9.80;;;3.83;;
64597;SDS011;51004;54.692;9.332;2023-03-31T14:20:29;7.07;;;3.90;;
64597;SDS011;51004;54.692;9.332;2023-03-31T14:28:32;8.77;;;3.60;;
64597;SDS011;51004;54.692;9.332;2023-03-31T14:38:39;6.38;;;4.15;;
64597;SDS011;51004;54.692;9.332;2023-03-31T14:41:05;8.35;;;4.80;;
64597;SDS011;51004;54.692;9.332;2023-03-31T14:43:32;7.53;;;3.83;;
64597;SDS011;51004;54.692;9.332;2023-03-31T14:46:00;5.90;;;3.72;;
64597;SDS011;51004;54.692;9.332;2023-03-31T14:48:43;9.23;;;3.83;;
64597;SDS011;51004;54.692;9.332;2023-03-31T14:51:10;4.97;;;3.42;;
64597;SDS011;51004;54.692;9.332;2023-03-31T14:53:38;6.63;;;3.17;;
64597;SDS011;51004;54.692;9.332;2023-03-31T14:56:26;7.15;;;4.07;;
64597;SDS011;51004;54.692;9.332;2023-03-31T14:58:53;5.18;;;3.22;;
64597;SDS011;51004;54.692;9.332;2023-03-31T15:01:24;6.13;;;2.83;;
64597;SDS011;51004;54.692;9.332;2023-03-31T15:03:50;5.32;;;2.67;;
64597;SDS011;51004;54.692;9.332;2023-03-31T15:06:17;5.35;;;2.78;;
64597;SDS011;51004;54.692;9.332;2023-03-31T15:08:43;3.55;;;1.98;;
64597;SDS011;51004;54.692;9.332;2023-03-31T15:11:14;2.83;;;1.85;;
64597;SDS011;51004;54.692;9.332;2023-03-31T15:13:42;6.90;;;2.00;;
64597;SDS011;51004;54.692;9.332;2023-03-31T15:16:19;4.28;;;2.38;;
64597;SDS011;51004;54.692;9.332;2023-03-31T15:18:45;3.65;;;2.28;;
64597;SDS011;51004;54.692;9.332;2023-03-31T15:21:22;9.02;;;2.72;;
64597;SDS011;51004;54.692;9.332;2023-03-31T15:23:52;6.47;;;2.63;;
64597;SDS011;51004;54.692;9.332;2023-03-31T15:26:20;4.43;;;2.63;;
64597;SDS011;51004;54.692;9.332;2023-03-31T15:28:54;4.35;;;3.08;;
64597;SDS011;51004;54.692;9.332;2023-03-31T15:31:21;7.55;;;4.13;;
64597;SDS011;51004;54.692;9.332;2023-03-31T15:33:48;7.93;;;4.18;;
64597;SDS011;51004;54.692;9.332;2023-03-31T15:36:14;6.45;;;4.78;;
64597;SDS011;51004;54.692;9.332;2023-03-31T15:38:41;6.03;;;4.15;;
64597;SDS011;51004;54.692;9.332;2023-03-31T15:41:13;9.15;;;4.38;;
64597;SDS011;51004;54.692;9.332;2023-03-31T15:46:24;9.25;;;3.70;;
64597;SDS011;51004;54.692;9.332;2023-03-31T15:48:59;5.80;;;4.18;;
64597;SDS011;51004;54.692;9.332;2023-03-31T15:53:52;6.53;;;3.50;;
64597;SDS011;51004;54.692;9.332;2023-03-31T15:59:04;6.72;;;3.90;;
64597;SDS011;51004;54.692;9.332;2023-03-31T16:01:43;7.10;;;3.65;;
64597;SDS011;51004;54.692;9.332;2023-03-31T16:04:11;8.13;;;5.43;;
64597;SDS011;51004;54.692;9.332;2023-03-31T16:09:08;10.20;;;5.47;;
64597;SDS011;51004;54.692;9.332;2023-03-31T16:14:06;14.70;;;7.22;;
64597;SDS011;51004;54.692;9.332;2023-03-31T16:16:33;11.63;;;6.90;;
64597;SDS011;51004;54.692;9.332;2023-03-31T16:19:01;12.98;;;7.05;;
64597;SDS011;51004;54.692;9.332;2023-03-31T16:21:28;11.32;;;6.93;;
64597;SDS011;51004;54.692;9.332;2023-03-31T16:23:58;11.05;;;7.00;;
64597;SDS011;51004;54.692;9.332;2023-03-31T16:26:24;11.15;;;7.50;;
64597;SDS011;51004;54.692;9.332;2023-03-31T16:28:52;15.57;;;7.43;;
64597;SDS011;51004;54.692;9.332;2023-03-31T16:31:38;11.20;;;7.20;;
64597;SDS011;51004;54.692;9.332;2023-03-31T16:34:06;12.52;;;7.30;;
64597;SDS011;51004;54.692;9.332;2023-03-31T16:36:32;10.27;;;6.93;;
64597;SDS011;51004;54.692;9.332;2023-03-31T16:38:58;11.02;;;7.10;;
64597;SDS011;51004;54.692;9.332;2023-03-31T16:41:24;10.73;;;7.05;;
64597;SDS011;51004;54.692;9.332;2023-03-31T16:43:52;10.23;;;7.32;;
64597;SDS011;51004;54.692;9.332;2023-03-31T16:46:19;9.65;;;7.25;;
64597;SDS011;51004;54.692;9.332;2023-03-31T16:48:45;10.30;;;6.72;;
64597;SDS011;51004;54.692;9.332;2023-03-31T16:51:11;11.88;;;7.25;;
64597;SDS011;51004;54.692;9.332;2023-03-31T16:53:37;12.70;;;7.60;;
64597;SDS011;51004;54.692;9.332;2023-03-31T16:56:04;10.73;;;6.57;;
64597;SDS011;51004;54.692;9.332;2023-03-31T16:58:34;15.35;;;7.55;;
64597;SDS011;51004;54.692;9.332;2023-03-31T17:01:01;14.20;;;7.85;;
64597;SDS011;51004;54.692;9.332;2023-03-31T17:03:28;15.02;;;7.47;;
64597;SDS011;51004;54.692;9.332;2023-03-31T17:05:55;15.15;;;8.98;;
64597;SDS011;51004;54.692;9.332;2023-03-31T17:08:22;13.30;;;8.25;;
64597;SDS011;51004;54.692;9.332;2023-03-31T17:10:52;14.13;;;8.70;;
64597;SDS011;51004;54.692;9.332;2023-03-31T17:13:19;12.23;;;9.02;;
64597;SDS011;51004;54.692;9.332;2023-03-31T17:15:45;13.70;;;8.77;;
64597;SDS011;51004;54.692;9.332;2023-03-31T17:18:11;15.15;;;8.85;;
64597;SDS011;51004;54.692;9.332;2023-03-31T17:20:37;15.38;;;9.93;;
64597;SDS011;51004;54.692;9.332;2023-03-31T17:23:03;12.77;;;8.23;;
64597;SDS011;51004;54.692;9.332;2023-03-31T17:25:30;10.85;;;7.78;;
64597;SDS011;51004;54.692;9.332;2023-03-31T17:27:58;12.73;;;8.65;;
64597;SDS011;51004;54.692;9.332;2023-03-31T17:30:25;15.93;;;8.57;;
64597;SDS011;51004;54.692;9.332;2023-03-31T17:32:52;15.20;;;8.52;;
64597;SDS011;51004;54.692;9.332;2023-03-31T17:35:18;13.57;;;7.38;;
64597;SDS011;51004;54.692;9.332;2023-03-31T17:37:48;12.27;;;7.15;;
64597;SDS011;51004;54.692;9.332;2023-03-31T17:40:17;13.73;;;8.25;;
64597;SDS011;51004;54.692;9.332;2023-03-31T17:42:43;10.40;;;7.82;;
64597;SDS011;51004;54.692;9.332;2023-03-31T17:45:11;15.63;;;8.82;;
64597;SDS011;51004;54.692;9.332;2023-03-31T17:47:37;13.07;;;7.38;;
64597;SDS011;51004;54.692;9.332;2023-03-31T17:50:03;13.85;;;8.52;;
64597;SDS011;51004;54.692;9.332;2023-03-31T17:52:29;12.63;;;8.07;;
64597;SDS011;51004;54.692;9.332;2023-03-31T17:54:55;12.32;;;8.40;;
64597;SDS011;51004;54.692;9.332;2023-03-31T17:57:21;12.95;;;8.23;;